createdAt,value
2023-04-29T00:00:48.359Z,12.87
2023-04-29T00:05:56.712Z,13.97
2023-04-29T00:11:04.990Z,13.52
2023-04-29T00:16:12.203Z,14.67
2023-04-29T00:21:18.952Z,13.80
2023-04-29T00:26:26.989Z,13.57
2023-04-29T00:31:33.453Z,19.15
2023-04-29T00:36:40.274Z,21.40
2023-04-29T00:41:49.025Z,14.80
2023-04-29T00:46:55.455Z,12.70
2023-04-29T00:52:02.395Z,11.50
2023-04-29T00:57:10.482Z,13.23
2023-04-29T01:02:18.806Z,13.93
2023-04-29T01:07:36.629Z,15.20
2023-04-29T01:12:55.919Z,14.38
2023-04-29T01:18:06.714Z,14.20
2023-04-29T01:23:13.780Z,13.52
2023-04-29T01:28:42.491Z,14.50
2023-04-29T01:34:00.969Z,17.10
2023-04-29T01:39:16.567Z,15.55
2023-04-29T01:44:32.838Z,12.25
2023-04-29T01:49:40.094Z,13.98
2023-04-29T01:54:47.497Z,13.43
2023-04-29T01:59:55.763Z,13.43
2023-04-29T02:05:20.419Z,13.73
2023-04-29T02:10:35.636Z,11.40
2023-04-29T02:15:58.220Z,10.93
2023-04-29T02:21:05.948Z,8.75
2023-04-29T02:26:15.698Z,8.82
2023-04-29T02:31:23.578Z,8.90
2023-04-29T02:36:30.430Z,7.27
2023-04-29T02:41:36.664Z,8.23
2023-04-29T02:46:46.079Z,7.18
2023-04-29T02:51:52.299Z,7.90
2023-04-29T02:56:59.101Z,7.80
2023-04-29T03:02:06.974Z,7.32
2023-04-29T03:07:13.756Z,7.10
2023-04-29T03:12:20.565Z,7.13
2023-04-29T03:17:28.555Z,6.95
2023-04-29T03:22:37.925Z,7.65
2023-04-29T03:27:44.774Z,7.55
2023-04-29T03:32:53.149Z,6.70
2023-04-29T03:37:59.672Z,6.53
2023-04-29T03:43:11.383Z,6.30
2023-04-29T03:48:20.434Z,8.13
2023-04-29T03:53:28.387Z,6.53
2023-04-29T03:58:35.488Z,5.53
2023-04-29T04:03:44.525Z,6.28
2023-04-29T04:14:02.593Z,6.10
2023-04-29T04:19:11.619Z,5.30
2023-04-29T04:24:22.508Z,5.43
2023-04-29T04:29:30.514Z,5.72
2023-04-29T04:34:41.600Z,5.22
2023-04-29T04:39:49.922Z,4.97
2023-04-29T04:44:56.546Z,6.00
2023-04-29T04:50:23.485Z,5.13
2023-04-29T04:55:33.871Z,4.78
2023-04-29T05:00:45.317Z,5.25
2023-04-29T05:05:57.412Z,5.95
2023-04-29T05:11:04.511Z,5.22
2023-04-29T05:16:11.132Z,6.03
2023-04-29T05:21:24.198Z,5.82
2023-04-29T05:26:30.588Z,4.82
2023-04-29T05:31:40.753Z,5.07
2023-04-29T05:36:49.353Z,4.78
2023-04-29T05:41:55.721Z,4.47
2023-04-29T05:47:14.924Z,4.35
2023-04-29T05:52:23.502Z,4.28
2023-04-29T06:02:41.587Z,4.75
2023-04-29T06:07:57.173Z,4.03
2023-04-29T06:13:12.015Z,5.80
2023-04-29T06:18:18.743Z,4.78
2023-04-29T06:23:26.941Z,4.40
2023-04-29T06:33:40.444Z,3.47
2023-04-29T06:38:48.522Z,3.30
2023-04-29T06:44:26.940Z,3.55
2023-04-29T06:49:44.106Z,3.92
2023-04-29T06:54:52.083Z,3.17
2023-04-29T06:59:58.540Z,3.92
2023-04-29T07:05:04.959Z,3.50
2023-04-29T07:10:13.349Z,3.08
2023-04-29T07:15:21.759Z,3.37
2023-04-29T07:20:29.759Z,3.17
2023-04-29T07:25:38.154Z,2.97
2023-04-29T07:30:46.640Z,2.90
2023-04-29T07:35:53.519Z,3.42
2023-04-29T07:41:02.103Z,3.40
2023-04-29T07:46:09.125Z,3.60
2023-04-29T07:51:16.426Z,3.25
2023-04-29T07:56:25.117Z,3.20
2023-04-29T08:01:31.842Z,3.20
2023-04-29T08:06:38.619Z,2.47
2023-04-29T08:11:47.038Z,2.65
2023-04-29T08:16:53.691Z,2.97
2023-04-29T08:22:01.409Z,3.05
2023-04-29T08:27:09.421Z,2.58
2023-04-29T08:32:16.348Z,2.90
2023-04-29T08:37:22.796Z,2.53
2023-04-29T08:42:37.286Z,2.60
2023-04-29T08:47:44.305Z,2.78
2023-04-29T08:52:52.283Z,2.72
2023-04-29T08:58:00.427Z,2.72
2023-04-29T09:03:19.703Z,2.27
2023-04-29T09:08:28.391Z,2.20
2023-04-29T09:13:36.242Z,2.50
2023-04-29T09:18:48.354Z,2.35
2023-04-29T09:23:56.112Z,2.28
2023-04-29T09:29:14.395Z,2.33
2023-04-29T09:34:32.154Z,3.00
2023-04-29T09:39:41.650Z,2.13
2023-04-29T09:44:49.690Z,2.50
2023-04-29T09:50:12.908Z,2.20
2023-04-29T09:55:19.509Z,2.08
2023-04-29T10:00:29.872Z,2.00
2023-04-29T10:05:36.363Z,2.17
2023-04-29T10:10:42.912Z,2.22
2023-04-29T10:16:01.777Z,2.25
2023-04-29T10:21:10.785Z,2.40
2023-04-29T10:26:18.435Z,2.15
2023-04-29T10:31:30.541Z,2.10
2023-04-29T10:36:39.090Z,2.13
2023-04-29T10:41:48.711Z,2.13
2023-04-29T10:47:23.568Z,2.20
2023-04-29T10:52:30.585Z,3.78
2023-04-29T11:02:46.311Z,2.67
2023-04-29T11:08:13.331Z,2.63
2023-04-29T11:13:27.875Z,2.20
2023-04-29T11:18:36.588Z,2.00
2023-04-29T11:23:45.503Z,2.20
2023-04-29T11:34:02.303Z,1.95
2023-04-29T11:39:09.821Z,2.20
2023-04-29T11:44:16.117Z,2.42
2023-04-29T11:49:29.250Z,2.40
2023-04-29T11:54:35.936Z,2.60
2023-04-29T11:59:45.056Z,2.45
2023-04-29T12:04:53.768Z,2.92
2023-04-29T12:10:01.065Z,2.40
2023-04-29T12:20:19.854Z,2.53
2023-04-29T12:25:30.372Z,2.20
2023-04-29T12:30:37.729Z,2.75
2023-04-29T12:35:45.934Z,2.30
2023-04-29T12:40:52.577Z,1.70
2023-04-29T12:46:04.944Z,1.77
2023-04-29T12:51:15.150Z,1.50
2023-04-29T13:01:29.260Z,2.60
2023-04-29T13:06:45.236Z,1.92
2023-04-29T13:11:52.322Z,2.10
2023-04-29T13:16:58.924Z,1.85
2023-04-29T13:22:07.066Z,1.75
2023-04-29T13:27:13.793Z,1.83
2023-04-29T13:32:24.755Z,1.60
2023-04-29T13:37:33.106Z,1.90
2023-04-29T13:42:47.180Z,2.30
2023-04-29T13:48:07.662Z,2.08
2023-04-29T13:54:03.057Z,1.95
2023-04-29T13:59:36.141Z,2.47
2023-04-29T14:04:19.536Z,2.20
2023-04-29T14:09:27.972Z,2.20
2023-04-29T14:14:34.947Z,2.28
2023-04-29T14:19:42.014Z,2.30
2023-04-29T14:24:50.107Z,2.55
2023-04-29T14:29:57.821Z,2.45
2023-04-29T14:35:07.377Z,2.42
2023-04-29T14:40:18.429Z,2.70
2023-04-29T14:45:26.382Z,2.70
2023-04-29T14:50:32.936Z,2.83
2023-04-29T14:55:41.038Z,3.10
2023-04-29T15:05:55.031Z,3.10
2023-04-29T15:11:03.169Z,4.65
2023-04-29T15:16:10.478Z,2.60
2023-04-29T15:21:17.380Z,3.00
2023-04-29T15:26:25.793Z,2.70
2023-04-29T15:31:32.566Z,3.17
2023-04-29T15:36:39.594Z,3.03
2023-04-29T15:41:48.589Z,2.88
2023-04-29T15:46:55.371Z,2.92
2023-04-29T15:52:02.100Z,2.92
2023-04-29T15:57:10.468Z,2.65
2023-04-29T16:02:17.610Z,3.42
2023-04-29T16:07:27.176Z,3.20
2023-04-29T16:12:35.656Z,2.80
2023-04-29T16:17:42.653Z,3.00
2023-04-29T16:22:49.578Z,3.63
2023-04-29T16:27:58.659Z,2.83
2023-04-29T16:33:11.435Z,3.08
2023-04-29T16:38:19.937Z,2.67
2023-04-29T16:46:27.190Z,2.83
2023-04-29T16:51:34.433Z,2.92
2023-04-29T16:57:07.931Z,3.70
2023-04-29T17:29:41.888Z,3.25
2023-04-29T17:34:49.922Z,2.55
2023-04-29T17:39:58.125Z,5.33
2023-04-29T17:45:07.785Z,3.58
2023-04-29T17:50:14.981Z,6.55
2023-04-29T17:55:23.452Z,4.80
2023-04-29T18:00:36.046Z,3.00
2023-04-29T18:05:47.424Z,3.22
2023-04-29T18:10:55.426Z,3.70
2023-04-29T18:16:06.078Z,3.80
2023-04-29T18:21:13.840Z,3.83
2023-04-29T18:26:21.749Z,4.72
2023-04-29T18:31:31.145Z,4.60
2023-04-29T18:36:38.050Z,4.68
2023-04-29T18:41:45.513Z,4.43
2023-04-29T18:46:55.856Z,5.15
2023-04-29T18:52:12.932Z,5.50
2023-04-29T18:57:29.549Z,8.05
2023-04-29T19:02:39.560Z,11.30
2023-04-29T19:07:48.476Z,13.13
2023-04-29T19:13:02.208Z,17.08
2023-04-29T19:19:09.327Z,19.17
2023-04-29T19:25:00.332Z,18.52
2023-04-29T19:30:36.507Z,18.40
2023-04-29T19:35:50.157Z,16.20
2023-04-29T19:40:59.122Z,13.35
2023-04-29T19:46:09.556Z,13.50
2023-04-29T19:51:20.953Z,11.68
2023-04-29T19:56:29.924Z,11.90
2023-04-29T20:01:39.438Z,12.20
2023-04-29T20:06:51.520Z,13.57
2023-04-29T20:11:59.823Z,13.13
2023-04-29T20:17:10.819Z,12.90
2023-04-29T20:22:20.570Z,12.30
2023-04-29T20:27:28.167Z,12.48
2023-04-29T20:32:35.233Z,12.52
2023-04-29T20:37:44.500Z,13.25
2023-04-29T20:42:51.511Z,12.15
2023-04-29T20:47:58.676Z,13.18
2023-04-29T20:53:08.516Z,11.95
2023-04-29T20:58:16.908Z,13.88
2023-04-29T21:03:23.605Z,14.37
2023-04-29T21:08:32.035Z,15.65
2023-04-29T21:13:38.916Z,15.07
2023-04-29T21:18:45.811Z,12.27
2023-04-29T21:23:53.756Z,12.05
2023-04-29T21:29:00.319Z,11.23
2023-04-29T21:34:07.574Z,10.55
2023-04-29T21:39:16.097Z,10.52
2023-04-29T21:44:23.377Z,9.50
2023-04-29T21:49:30.839Z,8.20
2023-04-29T21:54:39.413Z,6.88
2023-04-29T21:59:46.661Z,6.65
2023-04-29T22:04:54.572Z,6.78
2023-04-29T22:10:04.113Z,7.03
2023-04-29T22:15:24.662Z,6.22
2023-04-29T22:20:35.003Z,6.22
2023-04-29T22:25:43.141Z,5.63
2023-04-29T22:30:49.669Z,6.10
2023-04-29T22:35:56.328Z,5.72
2023-04-29T22:41:04.737Z,5.72
2023-04-29T22:46:12.001Z,5.93
2023-04-29T22:51:20.335Z,6.25
2023-04-29T22:56:29.249Z,5.72
2023-04-29T23:01:35.752Z,6.22
2023-04-29T23:06:42.442Z,6.47
2023-04-29T23:11:50.502Z,6.25
2023-04-29T23:16:57.031Z,6.55
2023-04-29T23:22:03.676Z,6.63
2023-04-29T23:27:11.784Z,6.30
2023-04-29T23:32:19.818Z,6.80
2023-04-29T23:37:27.539Z,7.53
2023-04-29T23:42:35.951Z,7.25
2023-04-29T23:47:42.452Z,6.50
2023-04-29T23:52:48.729Z,7.00
2023-04-29T23:58:06.990Z,7.18
